Time;durP1;ratioP1;P1;durP2;ratioP2;P2;SDS_P1;SDS_P2;PMS_P1;PMS_P2;Temp;Humidity;BMP_temperature;BMP_pressure;BME280_temperature;BME280_humidity;BME280_pressure;Samples;Min_cycle;Max_cycle;Signal;HPM_P1;HPM_P2
2022/03/11 00:00:00;;;;;;;14.55;9.13;;;5.20;99.90;;;;;;4991519;28;20038;-86
2022/03/11 00:02:25;;;;;;;13.38;8.90;;;5.20;99.90;;;;;;4975406;28;20061;-86
2022/03/11 00:04:51;;;;;;;14.98;9.10;;;5.20;99.90;;;;;;4975077;28;20089;-86
2022/03/11 00:07:16;;;;;;;16.85;9.07;;;5.10;99.90;;;;;;4991176;28;20411;-86
2022/03/11 00:09:42;;;;;;;16.00;9.15;;;5.10;99.90;;;;;;4991398;28;20129;-86
2022/03/11 00:12:10;;;;;;;14.15;8.52;;;5.10;99.90;;;;;;4991494;28;20073;-85
2022/03/11 00:14:36;;;;;;;12.65;8.80;;;5.10;99.90;;;;;;4975078;28;20077;-85
2022/03/11 00:17:02;;;;;;;18.10;8.45;;;5.10;99.90;;;;;;4990991;28;20125;-86
2022/03/11 00:19:29;;;;;;;16.70;9.20;;;5.00;99.90;;;;;;4990975;28;20129;-86
2022/03/11 00:21:57;;;;;;;13.48;8.30;;;5.00;99.90;;;;;;4991174;28;20046;-86
2022/03/11 00:24:23;;;;;;;12.68;8.52;;;5.00;99.90;;;;;;4990936;28;20105;-86
2022/03/11 00:26:49;;;;;;;13.20;8.57;;;5.00;99.90;;;;;;4975135;28;20500;-86
2022/03/11 00:29:14;;;;;;;11.55;7.78;;;4.90;99.90;;;;;;4974775;28;20048;-86
2022/03/11 00:31:40;;;;;;;12.30;7.65;;;4.90;99.90;;;;;;4975101;28;20039;-86
2022/03/11 00:34:05;;;;;;;13.48;8.23;;;4.90;99.90;;;;;;4990871;28;20043;-86
2022/03/11 00:36:32;;;;;;;12.95;8.52;;;4.90;99.90;;;;;;4993534;28;20108;-86
2022/03/11 00:38:57;;;;;;;14.18;7.93;;;4.80;99.90;;;;;;4995094;28;20038;-85
2022/03/11 00:41:23;;;;;;;12.02;7.72;;;4.80;99.90;;;;;;4994923;28;20036;-85
2022/03/11 00:43:48;;;;;;;12.18;7.93;;;4.80;99.90;;;;;;4994560;28;20061;-85
2022/03/11 00:46:14;;;;;;;10.95;7.43;;;4.80;99.90;;;;;;4978504;28;20401;-85
2022/03/11 00:48:39;;;;;;;12.23;7.43;;;4.80;99.90;;;;;;4994810;28;20116;-86
2022/03/11 00:51:05;;;;;;;12.65;7.18;;;4.80;99.90;;;;;;4978479;28;20493;-85
2022/03/11 00:53:30;;;;;;;12.68;7.63;;;4.70;99.90;;;;;;4994438;28;20125;-85
2022/03/11 00:55:56;;;;;;;11.98;7.80;;;4.70;99.90;;;;;;4994406;28;20416;-85
2022/03/11 00:58:21;;;;;;;12.57;7.60;;;4.80;99.90;;;;;;4994572;28;20038;-86
2022/03/11 01:00:47;;;;;;;11.20;7.70;;;4.70;99.90;;;;;;4994574;28;20038;-85
2022/03/11 01:03:13;;;;;;;12.90;7.55;;;4.80;99.90;;;;;;4978393;28;20587;-84
2022/03/11 01:05:39;;;;;;;15.52;7.57;;;4.70;99.90;;;;;;4978298;28;20070;-85
2022/03/11 01:08:05;;;;;;;12.90;8.02;;;4.70;99.90;;;;;;4978403;28;20038;-85
2022/03/11 01:10:31;;;;;;;12.98;7.03;;;4.70;99.90;;;;;;4994673;28;20046;-86
2022/03/11 01:12:57;;;;;;;11.38;7.47;;;4.80;99.90;;;;;;4978173;28;20097;-85
2022/03/11 01:15:23;;;;;;;12.90;7.40;;;4.70;99.90;;;;;;4977801;28;20452;-85
2022/03/11 01:17:48;;;;;;;11.07;7.53;;;4.70;99.90;;;;;;4994396;28;20488;-85
2022/03/11 01:20:14;;;;;;;11.85;7.00;;;4.70;99.90;;;;;;4994460;28;20042;-84
2022/03/11 01:22:40;;;;;;;12.27;7.45;;;4.70;99.90;;;;;;4977994;28;20045;-85
2022/03/11 01:25:06;;;;;;;13.55;8.13;;;4.60;99.90;;;;;;4993884;28;20038;-86
2022/03/11 01:27:32;;;;;;;13.70;7.70;;;4.60;99.90;;;;;;4994213;28;20050;-85
2022/03/11 01:29:58;;;;;;;14.40;7.88;;;4.60;99.90;;;;;;4977809;28;20049;-86
2022/03/11 01:32:24;;;;;;;11.45;7.60;;;4.60;99.90;;;;;;4977746;28;20042;-85
2022/03/11 01:34:49;;;;;;;13.32;7.97;;;4.60;99.90;;;;;;4993839;28;20129;-85
2022/03/11 01:37:15;;;;;;;13.82;7.75;;;4.60;99.90;;;;;;4993720;28;20129;-85
2022/03/11 01:39:40;;;;;;;12.57;7.88;;;4.60;99.90;;;;;;4993941;28;20489;-85
2022/03/11 01:42:07;;;;;;;13.70;7.53;;;4.50;99.90;;;;;;4977579;28;20034;-86
2022/03/11 01:44:33;;;;;;;13.20;8.23;;;4.50;99.90;;;;;;4993804;28;20523;-86
2022/03/11 01:46:59;;;;;;;12.38;7.38;;;4.50;99.90;;;;;;4993581;28;20524;-86
2022/03/11 01:49:25;;;;;;;12.73;8.15;;;4.40;99.90;;;;;;4993754;28;20050;-86
2022/03/11 01:51:52;;;;;;;14.10;8.10;;;4.50;99.90;;;;;;4993634;28;20492;-86
2022/03/11 01:54:18;;;;;;;13.60;8.07;;;4.40;99.90;;;;;;4993373;28;20121;-85
2022/03/11 01:56:44;;;;;;;12.82;8.25;;;4.40;99.90;;;;;;4993401;28;20046;-85
2022/03/11 01:59:11;;;;;;;13.45;8.57;;;4.40;99.90;;;;;;4993400;28;20393;-85
2022/03/11 02:01:37;;;;;;;13.18;8.35;;;4.30;99.90;;;;;;4993474;28;20053;-85
2022/03/11 02:04:03;;;;;;;13.68;8.82;;;4.30;99.90;;;;;;4993346;28;20659;-85
2022/03/11 02:06:29;;;;;;;13.43;9.25;;;4.30;99.90;;;;;;4977406;28;20229;-86
2022/03/11 02:08:56;;;;;;;13.05;8.52;;;4.30;99.90;;;;;;4977191;28;20050;-85
2022/03/11 02:11:22;;;;;;;16.13;8.60;;;4.20;99.90;;;;;;4977223;28;20042;-85
2022/03/11 02:13:50;;;;;;;13.40;8.40;;;4.20;99.90;;;;;;4976769;28;20050;-85
2022/03/11 02:16:18;;;;;;;17.15;10.18;;;4.10;99.90;;;;;;4976997;28;20454;-85
2022/03/11 02:18:44;;;;;;;16.10;9.27;;;4.10;99.90;;;;;;4976820;28;20248;-85
2022/03/11 02:21:11;;;;;;;13.90;10.10;;;4.10;99.90;;;;;;4976841;28;20514;-85
2022/03/11 02:23:50;;;;;;;15.75;9.73;;;4.00;99.90;;;;;;4993101;28;20038;-85
2022/03/11 02:26:17;;;;;;;18.10;10.15;;;4.00;99.90;;;;;;4992396;28;20038;-85
2022/03/11 02:28:44;;;;;;;15.48;10.30;;;4.00;99.90;;;;;;4993027;28;20045;-86
2022/03/11 02:31:10;;;;;;;17.17;10.15;;;4.00;99.90;;;;;;4993092;28;20050;-85
2022/03/11 02:33:35;;;;;;;15.73;9.98;;;3.90;99.90;;;;;;4993126;28;20092;-86
2022/03/11 02:36:01;;;;;;;17.15;10.43;;;3.90;99.90;;;;;;4976617;28;20039;-85
2022/03/11 02:38:27;;;;;;;16.83;10.68;;;3.90;99.90;;;;;;4992770;28;20045;-85
2022/03/11 02:40:53;;;;;;;16.63;10.10;;;3.80;99.90;;;;;;4992756;28;20038;-85
2022/03/11 02:43:19;;;;;;;16.70;10.90;;;3.80;99.90;;;;;;4992630;28;20116;-84
2022/03/11 02:45:45;;;;;;;19.50;10.95;;;3.80;99.90;;;;;;4992611;28;20073;-86
2022/03/11 02:48:10;;;;;;;18.88;12.27;;;3.80;99.90;;;;;;4992465;28;20173;-85
2022/03/11 02:50:36;;;;;;;22.60;11.55;;;3.80;99.90;;;;;;4992833;28;20052;-86
2022/03/11 02:53:02;;;;;;;18.92;10.73;;;3.70;99.90;;;;;;4992622;28;20042;-85
2022/03/11 02:55:27;;;;;;;19.88;11.73;;;3.70;99.90;;;;;;4992114;28;20038;-85
2022/03/11 02:57:53;;;;;;;19.63;12.10;;;3.70;99.90;;;;;;4991783;28;20049;-85
2022/03/11 03:00:18;;;;;;;20.23;12.25;;;3.70;99.90;;;;;;4992567;28;20043;-85
2022/03/11 03:02:44;;;;;;;21.90;13.07;;;3.70;99.90;;;;;;4992329;28;20034;-86
2022/03/11 03:05:10;;;;;;;19.27;12.00;;;3.70;99.90;;;;;;4992123;28;20508;-85
2022/03/11 03:07:35;;;;;;;26.00;13.43;;;3.80;99.90;;;;;;4976196;28;20042;-85
2022/03/11 03:10:01;;;;;;;21.58;13.07;;;3.70;99.90;;;;;;4975971;28;20052;-84
2022/03/11 03:12:27;;;;;;;20.83;12.90;;;3.60;99.90;;;;;;4992089;28;20050;-85
2022/03/11 03:14:53;;;;;;;22.58;13.27;;;3.60;99.90;;;;;;4991799;28;20046;-84
2022/03/11 03:17:21;;;;;;;25.13;13.20;;;3.50;99.90;;;;;;4991753;28;20412;-85
2022/03/11 03:19:47;;;;;;;23.13;14.00;;;3.50;99.90;;;;;;4975789;28;20523;-85
2022/03/11 03:22:13;;;;;;;21.58;13.10;;;3.50;99.90;;;;;;4991868;28;20042;-85
2022/03/11 03:24:38;;;;;;;22.75;14.18;;;3.50;99.90;;;;;;4991739;28;20097;-85
2022/03/11 03:27:04;;;;;;;23.05;13.98;;;3.40;99.90;;;;;;4991909;28;20113;-85
2022/03/11 03:29:30;;;;;;;26.45;14.57;;;3.40;99.90;;;;;;4992015;28;20385;-84
2022/03/11 03:31:58;;;;;;;22.65;14.02;;;3.40;99.90;;;;;;4991686;28;20507;-85
2022/03/11 03:34:33;;;;;;;23.25;15.02;;;3.30;99.90;;;;;;4991424;28;20422;-85
2022/03/11 03:37:01;;;;;;;25.80;14.68;;;3.40;99.90;;;;;;4991522;28;20133;-85
2022/03/11 03:39:27;;;;;;;24.88;15.10;;;3.30;99.90;;;;;;4991586;28;20070;-85
2022/03/11 03:41:53;;;;;;;24.15;14.43;;;3.30;99.90;;;;;;4991452;28;20071;-85
2022/03/11 03:44:19;;;;;;;25.67;14.93;;;3.30;99.90;;;;;;4974879;28;20125;-84
2022/03/11 03:46:45;;;;;;;24.35;14.52;;;3.30;99.90;;;;;;4975201;28;20129;-84
2022/03/11 03:49:11;;;;;;;25.77;15.20;;;3.20;99.90;;;;;;4991393;28;20129;-85
2022/03/11 03:51:39;;;;;;;23.17;15.38;;;3.20;99.90;;;;;;4991703;28;20489;-84
2022/03/11 03:54:06;;;;;;;22.98;15.25;;;3.20;99.90;;;;;;4991073;28;20038;-85
2022/03/11 03:56:36;;;;;;;23.13;14.93;;;3.20;99.90;;;;;;4991203;28;20038;-84
2022/03/11 03:59:04;;;;;;;26.27;15.60;;;3.20;99.90;;;;;;4991187;28;20042;-85
2022/03/11 04:01:42;;;;;;;25.83;15.77;;;3.10;99.90;;;;;;4991298;28;20042;-85
2022/03/11 04:04:09;;;;;;;25.17;16.63;;;3.10;99.90;;;;;;4991116;28;20069;-85
2022/03/11 04:06:36;;;;;;;25.65;15.95;;;3.10;99.90;;;;;;4974138;28;20034;-85
2022/03/11 04:09:05;;;;;;;28.83;17.50;;;3.00;99.90;;;;;;4974097;28;20049;-85
2022/03/11 04:11:30;;;;;;;24.73;15.35;;;3.00;99.90;;;;;;4974152;28;20054;-85
2022/03/11 04:13:58;;;;;;;25.95;16.30;;;3.00;99.90;;;;;;4974913;28;20035;-85
2022/03/11 04:16:24;;;;;;;28.08;16.50;;;3.00;99.90;;;;;;4991097;28;20377;-84
2022/03/11 04:18:50;;;;;;;25.95;16.08;;;3.00;99.90;;;;;;4991086;28;20046;-86
2022/03/11 04:21:17;;;;;;;28.55;16.98;;;2.90;99.90;;;;;;4991325;28;20074;-86
2022/03/11 04:23:44;;;;;;;30.15;16.90;;;2.90;99.90;;;;;;4990784;28;20046;-85
2022/03/11 04:26:10;;;;;;;26.38;16.27;;;2.90;99.90;;;;;;4990756;28;20048;-85
2022/03/11 04:28:37;;;;;;;27.77;17.50;;;2.90;99.90;;;;;;4974645;28;20520;-85
2022/03/11 04:31:07;;;;;;;27.40;17.58;;;2.90;99.90;;;;;;4990882;28;20104;-85
2022/03/11 04:33:37;;;;;;;26.17;17.05;;;2.80;99.90;;;;;;4974615;28;20042;-85
2022/03/11 04:36:04;;;;;;;28.77;18.10;;;2.80;99.90;;;;;;4974356;28;20104;-85
2022/03/11 04:38:30;;;;;;;28.80;16.70;;;2.80;99.90;;;;;;4990692;28;20069;-85
2022/03/11 04:40:55;;;;;;;26.90;16.97;;;2.70;99.90;;;;;;4974710;28;20527;-85
2022/03/11 04:43:21;;;;;;;29.83;17.55;;;2.70;99.90;;;;;;4990992;28;20129;-85
2022/03/11 04:45:47;;;;;;;24.35;15.77;;;2.70;99.90;;;;;;4990525;28;20053;-85
2022/03/11 04:48:12;;;;;;;29.73;16.70;;;2.70;99.90;;;;;;4989807;28;20544;-84
2022/03/11 04:50:38;;;;;;;27.70;17.27;;;2.70;99.90;;;;;;4974582;28;20488;-85
2022/03/11 04:53:04;;;;;;;29.17;17.65;;;2.60;99.90;;;;;;4974429;28;20489;-85
2022/03/11 04:55:30;;;;;;;27.63;16.33;;;2.60;99.90;;;;;;4974279;28;20042;-85
2022/03/11 04:57:55;;;;;;;26.53;16.73;;;2.60;99.90;;;;;;4974339;28;20447;-85
2022/03/11 05:00:21;;;;;;;31.13;17.50;;;2.60;99.90;;;;;;4990697;28;20416;-84
2022/03/11 05:02:46;;;;;;;25.60;16.17;;;2.50;99.90;;;;;;4990813;28;20132;-84
2022/03/11 05:05:13;;;;;;;27.43;17.10;;;2.60;99.90;;;;;;4990654;28;20269;-84
2022/03/11 05:07:39;;;;;;;29.17;17.70;;;2.50;99.90;;;;;;4974150;28;20038;-84
2022/03/11 05:10:09;;;;;;;28.60;16.43;;;2.50;99.90;;;;;;4990500;28;20049;-85
2022/03/11 05:12:35;;;;;;;29.10;17.40;;;2.40;99.90;;;;;;4974815;28;20050;-83
2022/03/11 05:15:02;;;;;;;27.63;17.00;;;2.40;99.90;;;;;;4990272;28;20038;-85
2022/03/11 05:17:28;;;;;;;28.83;16.67;;;2.40;99.90;;;;;;4974258;28;20097;-85
2022/03/11 05:19:53;;;;;;;28.27;16.67;;;2.40;99.90;;;;;;4990642;28;20038;-84
2022/03/11 05:22:19;;;;;;;27.27;16.47;;;2.40;99.90;;;;;;4976298;28;20130;-84
2022/03/11 05:24:45;;;;;;;31.47;17.80;;;2.40;99.90;;;;;;4977922;28;20074;-85
2022/03/11 05:27:10;;;;;;;29.13;16.80;;;2.30;99.90;;;;;;4994049;28;20080;-85
2022/03/11 05:29:36;;;;;;;28.13;17.30;;;2.30;99.90;;;;;;4993953;28;20165;-85
2022/03/11 05:32:02;;;;;;;35.27;18.83;;;2.30;99.90;;;;;;4977811;28;20046;-84
2022/03/11 05:34:28;;;;;;;30.27;17.53;;;2.20;99.90;;;;;;4977508;28;20053;-83
2022/03/11 05:36:53;;;;;;;27.83;17.23;;;2.30;99.90;;;;;;4993654;28;20125;-85
2022/03/11 05:39:19;;;;;;;30.43;17.27;;;2.20;99.90;;;;;;4994061;28;20046;-85
2022/03/11 05:41:46;;;;;;;28.97;17.43;;;2.20;99.90;;;;;;4994155;28;20050;-86
2022/03/11 05:44:12;;;;;;;30.73;17.90;;;2.10;99.90;;;;;;4993963;28;20610;-85
2022/03/11 05:46:38;;;;;;;30.07;16.77;;;2.10;99.90;;;;;;4977220;28;20136;-84
2022/03/11 05:49:03;;;;;;;27.07;16.77;;;2.10;99.90;;;;;;4976485;28;20077;-84
2022/03/11 05:51:29;;;;;;;28.90;17.10;;;2.10;99.90;;;;;;4993274;28;20043;-85
2022/03/11 05:53:55;;;;;;;27.93;17.27;;;2.00;99.90;;;;;;4993182;28;20563;-84
2022/03/11 05:56:20;;;;;;;29.33;18.00;;;2.00;99.90;;;;;;4993347;28;20516;-84
2022/03/11 05:58:46;;;;;;;27.67;17.00;;;2.00;99.90;;;;;;4993074;28;20097;-85
2022/03/11 06:01:12;;;;;;;30.40;18.10;;;2.00;99.90;;;;;;4992686;28;20273;-84
2022/03/11 06:03:38;;;;;;;29.33;18.43;;;2.00;99.90;;;;;;4993178;28;20043;-84
2022/03/11 06:06:03;;;;;;;28.30;18.10;;;2.00;99.90;;;;;;4991778;28;20046;-83
2022/03/11 06:08:29;;;;;;;27.90;17.50;;;2.00;99.90;;;;;;4992136;28;20038;-83
2022/03/11 06:10:54;;;;;;;29.37;17.90;;;2.00;99.90;;;;;;4991988;28;20097;-84
2022/03/11 06:13:20;;;;;;;29.40;18.20;;;2.00;99.90;;;;;;4975987;28;20042;-84
2022/03/11 06:15:46;;;;;;;29.40;17.63;;;2.00;99.90;;;;;;4975071;28;20045;-84
2022/03/11 06:18:15;;;;;;;28.50;17.67;;;2.00;99.90;;;;;;4976037;28;20409;-83
2022/03/11 06:20:41;;;;;;;26.03;17.60;;;2.00;99.90;;;;;;4975965;28;20463;-84
2022/03/11 06:23:06;;;;;;;28.97;17.90;;;2.00;99.90;;;;;;4976489;28;20038;-84
2022/03/11 06:25:32;;;;;;;27.40;16.27;;;2.00;99.90;;;;;;4976747;28;20046;-85
2022/03/11 06:27:58;;;;;;;31.43;17.40;;;2.00;99.90;;;;;;4992869;28;20042;-83
2022/03/11 06:30:23;;;;;;;25.97;16.63;;;2.00;99.90;;;;;;4976663;28;20035;-84
2022/03/11 06:32:49;;;;;;;29.00;17.47;;;2.00;99.90;;;;;;4992213;28;20065;-84
2022/03/11 06:35:16;;;;;;;28.60;18.13;;;2.10;99.90;;;;;;4976142;28;20044;-84
2022/03/11 06:37:43;;;;;;;28.47;16.67;;;2.10;99.90;;;;;;4975923;28;20046;-84
2022/03/11 06:40:10;;;;;;;26.90;17.37;;;2.20;99.90;;;;;;4992084;28;20377;-84
2022/03/11 06:42:40;;;;;;;29.60;17.77;;;2.20;99.90;;;;;;4992154;28;20034;-82
2022/03/11 06:45:07;;;;;;;28.40;16.57;;;2.20;99.90;;;;;;4976003;28;20093;-83
2022/03/11 06:47:33;;;;;;;29.53;17.20;;;2.30;99.90;;;;;;4975534;28;20038;-84
2022/03/11 06:49:58;;;;;;;29.90;17.30;;;2.30;99.90;;;;;;4975494;28;20034;-84
2022/03/11 06:52:24;;;;;;;27.23;16.20;;;2.40;99.90;;;;;;4991582;28;20567;-85
2022/03/11 06:54:49;;;;;;;28.17;17.10;;;2.50;99.90;;;;;;4991545;28;20519;-84
2022/03/11 06:57:17;;;;;;;26.83;17.10;;;2.50;99.90;;;;;;4991918;28;20089;-85
2022/03/11 06:59:44;;;;;;;27.67;17.37;;;2.50;99.90;;;;;;4991441;28;20121;-84
2022/03/11 07:02:09;;;;;;;28.87;17.53;;;2.60;99.90;;;;;;4975475;28;20030;-85
2022/03/11 07:04:35;;;;;;;29.43;17.13;;;2.70;99.90;;;;;;4991255;28;20121;-84
2022/03/11 07:07:00;;;;;;;30.40;17.40;;;2.70;99.90;;;;;;4975208;28;20046;-85
2022/03/11 07:09:26;;;;;;;28.37;16.80;;;2.70;99.90;;;;;;4991406;28;20313;-85
2022/03/11 07:11:57;;;;;;;25.63;16.33;;;2.90;99.90;;;;;;4991487;28;20050;-85
2022/03/11 07:14:23;;;;;;;26.33;16.20;;;2.90;99.90;;;;;;4977672;28;20404;-85
2022/03/11 07:16:52;;;;;;;27.40;16.40;;;3.00;99.90;;;;;;4975831;28;20046;-85
2022/03/11 07:19:18;;;;;;;28.67;16.70;;;3.10;99.90;;;;;;4993954;28;20035;-85
2022/03/11 07:21:44;;;;;;;26.00;16.77;;;3.20;99.90;;;;;;4975308;28;20085;-84
2022/03/11 07:24:09;;;;;;;28.03;17.13;;;3.20;99.90;;;;;;4975114;28;20105;-84
2022/03/11 07:26:35;;;;;;;30.00;17.73;;;3.30;99.90;;;;;;4994073;28;20141;-85
2022/03/11 07:29:02;;;;;;;26.87;16.83;;;3.40;99.90;;;;;;4991068;28;20039;-85
2022/03/11 07:31:28;;;;;;;30.60;17.03;;;3.50;99.90;;;;;;4990842;28;20039;-85
2022/03/11 07:33:54;;;;;;;25.05;16.45;;;3.60;99.90;;;;;;4990908;28;20464;-85
2022/03/11 07:36:20;;;;;;;26.80;16.85;;;3.70;99.90;;;;;;4990876;28;20049;-84
2022/03/11 07:38:45;;;;;;;27.60;15.90;;;3.80;99.90;;;;;;4974671;28;20408;-85
2022/03/11 07:41:14;;;;;;;28.60;17.08;;;3.90;99.90;;;;;;4990800;28;20049;-84
2022/03/11 07:43:42;;;;;;;25.83;16.23;;;4.00;99.90;;;;;;4990792;28;20040;-85
2022/03/11 07:46:08;;;;;;;28.02;16.55;;;4.10;99.90;;;;;;4991096;28;20463;-84
2022/03/11 07:48:34;;;;;;;27.15;16.48;;;4.20;99.90;;;;;;4981656;28;20050;-85
2022/03/11 07:51:02;;;;;;;27.17;16.88;;;4.30;99.90;;;;;;4993948;28;20045;-84
2022/03/11 07:53:27;;;;;;;28.83;16.70;;;4.40;99.90;;;;;;5009478;28;20100;-84
2022/03/11 07:55:53;;;;;;;26.67;15.80;;;4.60;99.90;;;;;;5009990;28;20045;-85
2022/03/11 07:58:21;;;;;;;25.67;15.93;;;4.60;99.90;;;;;;5010218;28;20030;-84
2022/03/11 08:00:48;;;;;;;29.67;17.05;;;4.70;99.90;;;;;;5010153;28;20068;-84
2022/03/11 08:03:14;;;;;;;26.90;15.65;;;4.90;99.90;;;;;;4994175;28;20452;-84
2022/03/11 08:05:40;;;;;;;24.83;15.93;;;5.00;99.90;;;;;;5010270;28;20456;-84
2022/03/11 08:08:05;;;;;;;28.48;16.30;;;5.10;99.90;;;;;;4993504;28;20080;-85
2022/03/11 08:10:33;;;;;;;25.15;15.57;;;5.20;99.90;;;;;;5010231;28;20042;-84
2022/03/11 08:13:00;;;;;;;24.17;15.45;;;5.30;99.90;;;;;;4993461;28;20116;-84
2022/03/11 08:15:25;;;;;;;26.73;16.23;;;5.40;99.90;;;;;;5010569;28;20048;-84
2022/03/11 08:17:51;;;;;;;24.60;16.30;;;5.50;99.90;;;;;;5011023;28;20038;-83
2022/03/11 08:20:18;;;;;;;26.45;15.77;;;5.50;99.90;;;;;;5010725;28;20041;-84
2022/03/11 08:22:45;;;;;;;27.20;15.13;;;5.60;99.90;;;;;;5010246;28;20045;-85
2022/03/11 08:25:11;;;;;;;28.35;16.40;;;5.80;99.90;;;;;;4994106;28;20033;-85
2022/03/11 08:27:38;;;;;;;27.85;15.25;;;5.90;99.90;;;;;;4993938;28;20504;-85
2022/03/11 08:30:05;;;;;;;28.25;16.10;;;5.90;99.90;;;;;;4994073;28;20053;-83
2022/03/11 08:32:31;;;;;;;25.02;16.50;;;6.00;99.90;;;;;;5010617;28;20168;-85
2022/03/11 08:34:58;;;;;;;25.17;15.93;;;6.10;99.90;;;;;;5010194;28;20514;-85
2022/03/11 08:37:24;;;;;;;24.38;16.25;;;6.10;99.90;;;;;;4993745;28;20048;-85
2022/03/11 08:39:50;;;;;;;25.75;15.55;;;6.20;99.90;;;;;;5011009;28;20404;-84
2022/03/11 08:42:15;;;;;;;24.75;15.48;;;6.20;99.90;;;;;;5009942;28;20037;-85
2022/03/11 08:44:41;;;;;;;24.75;15.52;;;6.30;99.90;;;;;;5009857;28;20415;-85
2022/03/11 08:47:07;;;;;;;25.00;15.57;;;6.40;99.90;;;;;;5002564;28;20519;-85
2022/03/11 08:49:32;;;;;;;28.38;16.90;;;6.50;99.90;;;;;;5009490;28;20048;-85
2022/03/11 08:51:58;;;;;;;25.60;16.67;;;6.50;99.90;;;;;;4994724;28;20039;-85
2022/03/11 08:54:24;;;;;;;23.60;14.65;;;6.60;99.90;;;;;;4990018;28;20423;-87
2022/03/11 08:56:52;;;;;;;23.27;15.75;;;6.70;99.90;;;;;;4991444;28;20046;-86
2022/03/11 08:59:18;;;;;;;24.40;16.80;;;6.70;99.90;;;;;;4994138;28;20061;-85
2022/03/11 09:01:43;;;;;;;26.38;16.02;;;6.70;99.90;;;;;;4978411;28;20030;-86
2022/03/11 09:04:09;;;;;;;22.88;15.10;;;6.80;99.90;;;;;;4994980;28;20515;-86
2022/03/11 09:06:35;;;;;;;25.13;15.05;;;6.90;99.90;;;;;;5003968;28;20046;-85
2022/03/11 09:09:00;;;;;;;24.42;15.68;;;6.90;99.90;;;;;;5013848;28;20068;-86
2022/03/11 09:11:26;;;;;;;22.85;15.05;;;7.00;99.90;;;;;;5013780;28;20038;-85
2022/03/11 09:13:52;;;;;;;26.65;16.65;;;7.00;99.90;;;;;;5013741;28;20107;-85
2022/03/11 09:16:17;;;;;;;24.27;15.98;;;7.10;99.90;;;;;;4993444;28;20424;-84
2022/03/11 09:18:43;;;;;;;24.17;14.77;;;7.20;99.90;;;;;;4977205;28;20081;-84
2022/03/11 09:21:09;;;;;;;26.98;16.15;;;7.20;99.90;;;;;;4977614;28;20447;-85
2022/03/11 09:23:34;;;;;;;23.58;15.63;;;7.30;99.90;;;;;;4993505;28;20038;-84
2022/03/11 09:26:00;;;;;;;26.38;17.13;;;7.40;99.90;;;;;;4976978;28;20030;-84
2022/03/11 09:28:25;;;;;;;22.17;15.23;;;7.40;99.90;;;;;;4993371;28;20097;-84
2022/03/11 09:30:51;;;;;;;25.55;15.30;;;7.40;99.90;;;;;;4996590;28;20038;-85
2022/03/11 09:33:17;;;;;;;24.52;15.98;;;7.50;99.90;;;;;;4994482;28;20056;-85
2022/03/11 09:35:42;;;;;;;22.58;15.50;;;7.60;99.90;;;;;;4997038;28;20045;-85
2022/03/11 09:38:08;;;;;;;24.95;16.60;;;7.60;99.90;;;;;;5013483;28;20033;-84
2022/03/11 09:40:34;;;;;;;24.17;16.08;;;7.70;99.90;;;;;;5013521;28;20041;-86
2022/03/11 09:43:01;;;;;;;25.42;16.25;;;7.80;99.90;;;;;;5013326;28;20042;-85
2022/03/11 09:45:27;;;;;;;23.40;15.85;;;7.90;99.90;;;;;;5013129;28;20038;-84
2022/03/11 09:47:54;;;;;;;26.27;16.20;;;7.90;99.90;;;;;;5013391;28;20355;-85
2022/03/11 09:50:20;;;;;;;27.23;16.00;;;8.00;99.90;;;;;;5013368;28;20045;-85
2022/03/11 09:52:49;;;;;;;24.05;16.23;;;8.00;99.90;;;;;;4996897;28;20042;-85
2022/03/11 09:55:15;;;;;;;29.15;16.17;;;8.10;99.90;;;;;;4996415;28;20071;-84
2022/03/11 09:57:40;;;;;;;25.40;16.63;;;8.10;99.90;;;;;;5012948;28;20048;-83
2022/03/11 10:00:07;;;;;;;24.75;15.82;;;8.10;99.90;;;;;;5012994;28;20038;-84
2022/03/11 10:02:34;;;;;;;26.30;15.43;;;8.20;99.90;;;;;;5013259;28;20038;-84
2022/03/11 10:04:59;;;;;;;25.83;15.20;;;8.30;99.90;;;;;;5012831;28;20372;-86
2022/03/11 10:07:27;;;;;;;25.80;15.57;;;8.40;99.90;;;;;;4995829;28;20073;-84
2022/03/11 10:09:54;;;;;;;26.10;15.95;;;8.40;99.90;;;;;;4995811;28;20057;-83
2022/03/11 10:12:29;;;;;;;24.05;16.63;;;8.50;99.90;;;;;;4996930;28;20396;-85
2022/03/11 10:15:02;;;;;;;25.65;16.15;;;8.60;99.90;;;;;;4995929;28;20045;-85
2022/03/11 10:17:36;;;;;;;25.45;16.50;;;8.60;99.90;;;;;;5012435;28;20100;-84
2022/03/11 10:20:04;;;;;;;;;;;8.70;99.90;;;;;;5013026;28;20038;-84
2022/03/11 10:22:31;;;;;;;23.23;15.60;;;8.80;99.90;;;;;;5012582;28;19917;-85
2022/03/11 10:25:00;;;;;;;25.95;16.60;;;8.90;99.90;;;;;;5012246;28;20515;-83
2022/03/11 10:27:26;;;;;;;22.98;15.93;;;9.00;99.90;;;;;;5012408;28;20046;-84
2022/03/11 10:29:55;;;;;;;24.88;16.85;;;9.10;99.90;;;;;;5011850;28;20056;-87
2022/03/11 10:32:24;;;;;;;23.42;15.30;;;9.10;99.90;;;;;;5010478;28;20534;-85
2022/03/11 10:34:50;;;;;;;25.27;16.02;;;9.10;99.90;;;;;;4993550;28;20049;-84
2022/03/11 10:37:16;;;;;;;25.17;16.23;;;9.10;99.90;;;;;;5010308;28;20099;-84
2022/03/11 10:39:46;;;;;;;24.88;17.20;;;9.20;99.90;;;;;;5009117;28;20584;-85
2022/03/11 10:42:12;;;;;;;24.63;16.92;;;9.30;99.90;;;;;;4993133;28;20052;-85
2022/03/11 10:44:39;;;;;;;22.73;15.18;;;9.40;99.90;;;;;;4994431;28;20500;-86
2022/03/11 10:47:22;;;;;;;25.65;16.40;;;9.40;99.90;;;;;;5011955;28;20077;-85
2022/03/11 10:49:52;;;;;;;24.02;16.00;;;9.50;99.90;;;;;;5012155;28;20050;-85
2022/03/11 10:52:36;;;;;;;24.77;15.65;;;9.70;99.90;;;;;;5012087;28;20049;-85
2022/03/11 10:55:26;;;;;;;23.23;15.15;;;9.70;99.90;;;;;;5012120;28;20060;-87
2022/03/11 10:57:54;;;;;;;27.20;16.83;;;9.80;99.90;;;;;;5011873;28;20519;-85
2022/03/11 11:00:23;;;;;;;23.98;16.10;;;9.80;99.90;;;;;;5012114;28;20030;-85
2022/03/11 11:02:51;;;;;;;23.20;15.95;;;9.80;99.90;;;;;;4995245;28;20492;-85
2022/03/11 11:05:17;;;;;;;23.02;15.23;;;9.80;99.90;;;;;;5011575;28;20041;-86
2022/03/11 11:07:44;;;;;;;23.15;15.52;;;9.80;99.90;;;;;;4995807;28;20046;-84
2022/03/11 11:10:11;;;;;;;23.52;15.75;;;9.90;99.90;;;;;;4994447;28;20049;-85
2022/03/11 11:12:38;;;;;;;25.92;15.93;;;9.90;99.90;;;;;;4996485;28;20126;-86
2022/03/11 11:15:04;;;;;;;24.88;15.82;;;10.00;99.90;;;;;;5014597;28;20101;-86
2022/03/11 11:17:31;;;;;;;25.98;17.13;;;10.10;99.90;;;;;;4995249;28;20104;-85
2022/03/11 11:20:00;;;;;;;23.50;15.75;;;10.10;99.90;;;;;;4990504;28;20042;-84
2022/03/11 11:22:26;;;;;;;27.00;15.65;;;10.30;99.90;;;;;;5011322;28;20046;-85
2022/03/11 11:24:54;;;;;;;23.63;15.93;;;10.50;99.90;;;;;;5010871;28;20037;-86
2022/03/11 11:27:20;;;;;;;22.17;15.88;;;10.60;99.30;;;;;;5011647;28;20511;-85
2022/03/11 11:29:49;;;;;;;20.23;14.98;;;10.60;99.60;;;;;;4995085;28;20088;-85
2022/03/11 11:32:17;;;;;;;24.55;14.60;;;10.70;99.10;;;;;;5011113;28;20443;-86
2022/03/11 11:34:42;;;;;;;21.77;14.15;;;10.80;97.70;;;;;;4995413;28;20411;-85
2022/03/11 11:37:36;;;;;;;24.20;14.52;;;10.90;98.60;;;;;;4994933;28;20042;-85
2022/03/11 11:40:17;;;;;;;23.10;15.60;;;11.00;96.80;;;;;;5011954;28;20037;-85
2022/03/11 11:43:13;;;;;;;22.73;13.88;;;11.00;97.20;;;;;;5011487;28;20034;-85
2022/03/11 11:45:43;;;;;;;23.95;15.05;;;11.10;97.00;;;;;;4994915;28;20100;-85
2022/03/11 11:48:35;;;;;;;23.33;15.32;;;11.10;96.10;;;;;;5011211;28;20400;-85
2022/03/11 11:51:09;;;;;;;21.77;14.68;;;11.20;96.10;;;;;;4993680;28;20042;-86
2022/03/11 11:53:56;;;;;;;19.48;14.20;;;11.20;95.40;;;;;;5011850;28;20058;-85
2022/03/11 11:56:31;;;;;;;28.88;15.30;;;11.30;95.00;;;;;;5011799;28;20452;-86
2022/03/11 11:58:59;;;;;;;21.27;14.68;;;11.50;95.70;;;;;;5012321;28;20164;-86
2022/03/11 12:01:49;;;;;;;24.02;14.30;;;11.60;95.50;;;;;;4994139;28;20423;-85
2022/03/11 12:04:35;;;;;;;23.58;15.18;;;11.50;94.10;;;;;;5010618;28;20049;-85
2022/03/11 12:07:03;;;;;;;18.42;13.65;;;11.60;94.70;;;;;;5012054;28;20124;-86
2022/03/11 12:12:08;;;;;;;22.33;15.02;;;11.80;93.60;;;;;;5011344;28;20046;-86
2022/03/11 12:14:54;;;;;;;22.83;14.82;;;11.90;94.10;;;;;;4995029;28;20038;-86
2022/03/11 12:17:51;;;;;;;21.67;14.70;;;12.20;93.20;;;;;;4995476;28;20077;-85
2022/03/11 12:20:38;;;;;;;20.65;14.38;;;12.30;93.20;;;;;;5011120;28;20053;-85
2022/03/11 12:23:06;;;;;;;19.55;14.52;;;12.50;94.10;;;;;;4995071;28;20070;-87
2022/03/11 12:25:36;;;;;;;21.83;14.27;;;12.50;93.80;;;;;;4994757;28;20038;-85
2022/03/11 12:28:05;;;;;;;19.08;13.57;;;12.50;93.60;;;;;;4995669;28;20108;-86
2022/03/11 12:30:47;;;;;;;21.27;14.43;;;12.60;93.10;;;;;;5011170;28;20046;-85
2022/03/11 12:33:18;;;;;;;21.50;14.60;;;12.60;92.70;;;;;;4995211;28;20053;-86
2022/03/11 12:35:50;;;;;;;21.02;15.27;;;12.60;92.60;;;;;;4994707;28;20129;-85
2022/03/11 12:38:21;;;;;;;22.00;14.63;;;12.60;92.60;;;;;;5010821;28;20049;-84
2022/03/11 12:40:48;;;;;;;21.08;14.20;;;12.70;92.30;;;;;;4995303;28;20053;-85